タリン の空港の天気 - METARとTAF

タリン空港 ( EETN / TLL ) - エストニア タリン
飛行場実況気象(Metar)
観測時間07/17 10:50 EEST (07/17 07:50 UTC)
風向・風速東北東 5m/s
視程10km以上
天気現象
少しの雲 雲底高度 610m
気温20℃
湿度64%
気圧1008hPa
METAREETN 170750Z 06009KT 030V100 9999 FEW020 20/13 Q1008 NOSIG
過去の天気等 Google飛行場航空写真 Wunderground天気予報

過去48時間のMETAR

飛行場予報(TAF)
発表時間: 7/17 08:16 EEST (7/17 05:16 UTC)
予報対象時間: 17日9時 EEST ~ 18日9時 EEST
風向・風速東北東 5m/s
視程10km以上
全天の4割程度の雲 雲底高度 1220m
17日11時 EEST ~ 17日19時 EEST に一時的に
全天の4割程度の積乱雲 雲底高度 910m
17日13時 EEST ~ 17日17時 EEST に 確率 40% で一時的に
風向・風速不定 10m/s
視程4000m
天気現象雷雨
18日1時 EEST ~ 18日3時 EEST に徐々に
風向・風速北 4m/s
TAF EETN 170516Z 1706/1806 06010KT 9999 SCT040
TEMPO 1708/1716 SCT030CB
PROB40 TEMPO 1710/1714 VRB20KT 4000 TSRA
BECMG 1722/1724 36008KT